createdAt,value
2023-01-05T00:00:31.018Z,10.17
2023-01-05T00:05:32.720Z,8.30
2023-01-05T00:10:55.057Z,11.03
2023-01-05T00:16:18.761Z,16.77
2023-01-05T00:21:38.962Z,13.23
2023-01-05T00:26:40.670Z,16.27
2023-01-05T00:31:43.726Z,16.30
2023-01-05T00:36:45.435Z,14.73
2023-01-05T00:41:47.133Z,14.80
2023-01-05T00:46:50.109Z,17.30
2023-01-05T00:51:51.748Z,15.87
2023-01-05T00:56:53.411Z,24.30
2023-01-05T01:01:56.633Z,15.37
2023-01-05T01:06:58.469Z,17.80
2023-01-05T01:12:00.200Z,16.97
2023-01-05T01:17:03.325Z,13.40
2023-01-05T01:22:05.021Z,23.83
2023-01-05T01:27:08.001Z,16.70
2023-01-05T01:32:11.086Z,22.83
2023-01-05T01:37:12.885Z,19.20
2023-01-05T01:42:20.851Z,15.00
2023-01-05T01:47:35.338Z,17.67
2023-01-05T01:52:37.155Z,12.67
2023-01-05T01:57:39.150Z,16.07
2023-01-05T02:02:42.412Z,12.93
2023-01-05T02:07:45.280Z,16.40
2023-01-05T02:12:58.851Z,21.10
2023-01-05T02:18:08.873Z,15.00
2023-01-05T02:23:38.798Z,27.77
2023-01-05T02:28:48.543Z,18.77
2023-01-05T02:34:00.253Z,21.63
2023-01-05T02:39:04.923Z,14.33
2023-01-05T02:44:07.392Z,13.93
2023-01-05T02:49:10.563Z,16.03
2023-01-05T02:54:13.809Z,12.23
2023-01-05T02:59:17.129Z,10.63
2023-01-05T03:04:21.301Z,17.47
2023-01-05T03:09:26.191Z,18.97
2023-01-05T03:14:32.326Z,15.30
2023-01-05T03:19:36.277Z,12.33
2023-01-05T03:24:56.644Z,11.50
2023-01-05T03:30:17.800Z,6.70
2023-01-05T03:35:33.855Z,9.40
2023-01-05T03:40:38.122Z,9.10
2023-01-05T03:45:41.143Z,8.60
2023-01-05T03:50:48.000Z,7.17
2023-01-05T03:55:51.402Z,9.63
2023-01-05T04:00:53.520Z,10.20
2023-01-05T04:05:59.005Z,9.67
2023-01-05T04:11:13.773Z,19.23
2023-01-05T04:16:16.037Z,10.87
2023-01-05T04:21:19.637Z,11.53
2023-01-05T04:26:23.453Z,12.73
2023-01-05T04:31:26.260Z,27.90
2023-01-05T04:36:31.944Z,14.07
2023-01-05T04:41:34.091Z,16.87
2023-01-05T04:46:36.001Z,20.70
2023-01-05T04:51:40.111Z,16.93
2023-01-05T04:56:43.675Z,14.20
2023-01-05T05:01:45.633Z,19.23
2023-01-05T05:06:50.969Z,19.57
2023-01-05T05:11:54.675Z,17.13
2023-01-05T05:16:58.193Z,16.60
2023-01-05T05:22:01.396Z,15.03
2023-01-05T05:27:03.051Z,17.60
2023-01-05T05:32:05.085Z,18.90
2023-01-05T05:37:08.528Z,16.53
2023-01-05T05:42:10.256Z,16.50
2023-01-05T05:47:11.959Z,22.50
2023-01-05T05:52:14.943Z,12.13
2023-01-05T05:57:17.518Z,13.63
2023-01-05T06:02:19.588Z,20.37
2023-01-05T06:07:22.696Z,13.77
2023-01-05T06:12:24.395Z,12.60
2023-01-05T06:17:26.198Z,23.80
2023-01-05T06:22:29.223Z,17.60
2023-01-05T06:27:31.038Z,16.97
2023-01-05T06:32:32.759Z,10.23
2023-01-05T06:37:35.833Z,16.97
2023-01-05T06:42:37.518Z,14.17
2023-01-05T06:47:39.215Z,12.37
2023-01-05T06:52:42.198Z,10.40
2023-01-05T06:57:43.926Z,13.87
2023-01-05T07:02:45.666Z,11.80
2023-01-05T07:07:48.673Z,14.07
2023-01-05T07:12:50.359Z,17.23
2023-01-05T07:17:52.037Z,12.23
2023-01-05T07:22:55.062Z,17.13
2023-01-05T07:27:56.883Z,15.27
2023-01-05T07:32:58.767Z,13.80
2023-01-05T07:38:01.801Z,9.70
2023-01-05T07:43:03.580Z,12.43
2023-01-05T07:48:05.718Z,17.20
2023-01-05T07:53:08.808Z,13.10
2023-01-05T07:58:10.483Z,9.20
2023-01-05T08:03:12.112Z,8.00
2023-01-05T08:08:20.597Z,8.13
2023-01-05T08:13:44.557Z,14.77
2023-01-05T08:18:46.276Z,10.30
2023-01-05T08:23:50.544Z,8.93
2023-01-05T08:28:52.329Z,13.93
2023-01-05T08:33:55.325Z,13.83
2023-01-05T08:39:01.075Z,12.17
2023-01-05T08:44:03.694Z,11.20
2023-01-05T08:49:06.524Z,13.80
2023-01-05T08:54:09.572Z,11.37
2023-01-05T08:59:12.024Z,7.87
2023-01-05T09:04:13.690Z,7.97
2023-01-05T09:09:16.706Z,4.00
2023-01-05T09:14:18.813Z,6.70
2023-01-05T09:19:20.516Z,8.50
2023-01-05T09:24:23.786Z,3.33
2023-01-05T09:29:25.567Z,4.40
2023-01-05T09:34:27.439Z,5.43
2023-01-05T09:39:30.584Z,2.83
2023-01-05T09:44:33.867Z,9.00
2023-01-05T09:49:35.576Z,4.10
2023-01-05T09:54:39.061Z,5.17
2023-01-05T09:59:42.158Z,7.50
2023-01-05T10:04:43.912Z,5.43
2023-01-05T10:09:47.131Z,5.30
2023-01-05T10:14:50.431Z,3.27
2023-01-05T10:19:52.174Z,5.97
2023-01-05T10:24:57.467Z,8.30
2023-01-05T10:30:03.109Z,11.73
2023-01-05T10:35:09.280Z,4.60
2023-01-05T10:40:28.504Z,5.73
2023-01-05T10:45:30.419Z,8.03
2023-01-05T10:50:36.050Z,7.80
2023-01-05T10:55:51.473Z,4.50
2023-01-05T11:00:54.755Z,9.80
2023-01-05T11:05:56.472Z,4.97
2023-01-05T11:11:00.050Z,5.73
2023-01-05T11:16:06.839Z,6.60
2023-01-05T11:21:11.136Z,7.47
2023-01-05T11:26:32.644Z,3.13
2023-01-05T11:31:36.215Z,5.17
2023-01-05T11:36:38.172Z,5.37
2023-01-05T11:41:42.234Z,3.83
2023-01-05T11:46:43.963Z,4.60
2023-01-05T11:51:45.716Z,4.20
2023-01-05T11:56:48.795Z,6.90
2023-01-05T12:02:00.191Z,3.93
2023-01-05T12:07:07.631Z,4.67
2023-01-05T12:12:19.711Z,6.10
2023-01-05T12:17:24.532Z,7.53
2023-01-05T12:22:43.108Z,4.17
2023-01-05T12:28:04.920Z,6.03
2023-01-05T12:38:55.383Z,11.30
2023-01-05T12:44:05.451Z,3.57
2023-01-05T12:49:08.846Z,3.93
2023-01-05T12:54:16.678Z,5.40
2023-01-05T12:59:22.762Z,6.73
2023-01-05T13:04:41.306Z,7.37
2023-01-05T13:09:43.405Z,7.03
2023-01-05T13:14:55.287Z,7.87
2023-01-05T13:20:01.891Z,5.80
2023-01-05T13:25:04.707Z,5.90
2023-01-05T13:30:09.088Z,6.23
2023-01-05T13:35:34.623Z,3.93
2023-01-05T13:40:52.743Z,7.70
2023-01-05T13:46:26.960Z,6.90
2023-01-05T13:51:35.872Z,3.50
2023-01-05T13:56:38.092Z,5.33
2023-01-05T14:01:41.970Z,9.27
2023-01-05T14:06:45.333Z,14.33
2023-01-05T14:12:20.773Z,6.00
2023-01-05T14:17:55.407Z,6.23
2023-01-05T14:22:57.354Z,12.83
2023-01-05T14:28:40.710Z,6.33
2023-01-05T14:33:48.111Z,4.40
2023-01-05T14:38:49.959Z,5.47
2023-01-05T14:43:55.444Z,2.13
2023-01-05T14:49:01.920Z,2.87
2023-01-05T14:54:04.767Z,4.90
2023-01-05T14:59:14.927Z,4.03
2023-01-05T15:04:19.935Z,4.33
2023-01-05T15:09:30.008Z,6.33
2023-01-05T15:14:48.849Z,6.40
2023-01-05T15:20:08.315Z,3.53
2023-01-05T15:25:49.268Z,5.27
2023-01-05T15:31:13.455Z,5.97
2023-01-05T15:36:21.955Z,9.00
2023-01-05T15:41:23.687Z,5.90
2023-01-05T15:46:32.026Z,6.63
2023-01-05T15:51:35.038Z,2.40
2023-01-05T15:56:40.667Z,6.23
2023-01-05T16:01:42.449Z,3.90
2023-01-05T16:06:45.864Z,9.13
2023-01-05T16:11:47.563Z,4.80
2023-01-05T16:16:53.315Z,6.60
2023-01-05T16:21:59.803Z,4.77
2023-01-05T16:27:02.597Z,8.10
2023-01-05T16:32:04.923Z,6.13
2023-01-05T16:37:16.191Z,2.10
2023-01-05T16:42:37.958Z,9.97
2023-01-05T16:47:41.054Z,4.70
2023-01-05T16:52:48.368Z,3.73
2023-01-05T16:57:50.182Z,11.00
2023-01-05T17:02:52.739Z,6.67
2023-01-05T17:08:02.277Z,4.00
2023-01-05T17:13:05.684Z,8.63
2023-01-05T17:18:15.081Z,11.37
2023-01-05T17:23:21.220Z,5.33
2023-01-05T17:28:24.362Z,5.27
2023-01-05T17:33:26.044Z,9.43
2023-01-05T17:38:29.114Z,4.80
2023-01-05T17:43:33.652Z,10.63
2023-01-05T17:48:35.445Z,8.43
2023-01-05T17:53:38.539Z,13.90
2023-01-05T17:58:40.506Z,7.40
2023-01-05T18:03:42.198Z,6.13
2023-01-05T18:08:45.323Z,7.40
2023-01-05T18:13:47.096Z,8.70
2023-01-05T18:18:48.783Z,37.93
2023-01-05T18:23:51.994Z,13.33
2023-01-05T18:28:54.224Z,11.83
2023-01-05T18:33:55.869Z,14.57
2023-01-05T18:38:58.921Z,6.53
2023-01-05T18:44:00.648Z,11.50
2023-01-05T18:49:02.721Z,12.70
2023-01-05T18:54:05.867Z,8.90
2023-01-05T18:59:07.573Z,11.50
2023-01-05T19:04:09.753Z,6.87
2023-01-05T19:09:13.601Z,8.47
2023-01-05T19:14:15.537Z,10.07
2023-01-05T19:19:19.264Z,7.17
2023-01-05T19:24:25.594Z,27.00
2023-01-05T19:29:27.321Z,13.27
2023-01-05T19:34:29.086Z,15.43
2023-01-05T19:39:32.085Z,10.83
2023-01-05T19:44:33.807Z,16.43
2023-01-05T19:49:35.554Z,9.17
2023-01-05T19:54:39.276Z,9.50
2023-01-05T19:59:41.030Z,6.77
2023-01-05T20:04:45.438Z,12.20
2023-01-05T20:09:48.840Z,9.13
2023-01-05T20:14:50.964Z,11.07
2023-01-05T20:19:52.735Z,12.93
2023-01-05T20:24:55.772Z,7.43
2023-01-05T20:29:57.431Z,10.17
2023-01-05T20:35:00.152Z,12.83
2023-01-05T20:40:04.503Z,11.30
2023-01-05T20:45:07.792Z,11.53
2023-01-05T20:50:09.597Z,13.37
2023-01-05T20:55:12.680Z,11.43
2023-01-05T21:00:16.567Z,12.80
2023-01-05T21:05:18.374Z,15.00
2023-01-05T21:10:21.510Z,20.17
2023-01-05T21:15:24.460Z,26.00
2023-01-05T21:20:27.655Z,22.07
2023-01-05T21:25:30.680Z,18.80
2023-01-05T21:30:52.392Z,23.60
2023-01-05T21:35:54.184Z,25.63
2023-01-05T21:41:03.969Z,26.27
2023-01-05T21:46:06.352Z,31.53
2023-01-05T21:51:28.130Z,23.37
2023-01-05T21:56:31.504Z,21.47
2023-01-05T22:01:33.274Z,31.10
2023-01-05T22:06:34.980Z,37.33
2023-01-05T22:11:38.028Z,27.40
2023-01-05T22:16:40.125Z,30.67
2023-01-05T22:21:42.054Z,29.53
2023-01-05T22:26:45.124Z,24.20
2023-01-05T22:31:47.082Z,30.20
2023-01-05T22:36:49.128Z,31.90
2023-01-05T22:41:52.158Z,28.47
2023-01-05T22:46:53.817Z,30.17
2023-01-05T22:51:55.496Z,28.03
2023-01-05T22:56:58.804Z,31.03
2023-01-05T23:02:00.523Z,32.10
2023-01-05T23:07:02.239Z,30.73
2023-01-05T23:12:05.532Z,38.50
2023-01-05T23:17:12.079Z,35.77
2023-01-05T23:22:13.755Z,29.10
2023-01-05T23:27:16.769Z,39.73
2023-01-05T23:32:18.419Z,34.87
2023-01-05T23:37:20.211Z,39.47
2023-01-05T23:42:41.813Z,38.27
2023-01-05T23:47:43.678Z,35.40
2023-01-05T23:52:45.426Z,37.93
2023-01-05T23:57:48.461Z,33.20
